createdAt,value
2022-10-11T00:00:02.400Z,7.60
2022-10-11T00:01:05.418Z,7.58
2022-10-11T00:02:05.373Z,7.61
2022-10-11T00:03:02.335Z,7.60
2022-10-11T00:04:02.347Z,7.60
2022-10-11T00:05:02.385Z,7.60
2022-10-11T00:06:02.758Z,7.61
2022-10-11T00:07:02.287Z,7.61
2022-10-11T00:08:02.274Z,7.66
2022-10-11T00:09:02.257Z,7.63
2022-10-11T00:10:02.259Z,7.69
2022-10-11T00:11:02.266Z,7.69
2022-10-11T00:12:02.209Z,7.69
2022-10-11T00:13:02.188Z,7.69
2022-10-11T00:14:02.217Z,7.69
2022-10-11T00:15:02.188Z,7.72
2022-10-11T00:16:02.512Z,7.72
2022-10-11T00:17:02.149Z,7.73
2022-10-11T00:18:05.285Z,7.73
2022-10-11T00:19:02.620Z,7.72
2022-10-11T00:20:02.124Z,7.69
2022-10-11T00:21:05.099Z,7.69
2022-10-11T00:22:05.085Z,7.72
2022-10-11T00:23:02.059Z,7.70
2022-10-11T00:24:02.058Z,7.70
2022-10-11T00:25:02.078Z,7.69
2022-10-11T00:26:02.448Z,7.69
2022-10-11T00:27:02.004Z,7.72
2022-10-11T00:28:01.992Z,7.73
2022-10-11T00:29:01.981Z,7.70
2022-10-11T00:30:02.002Z,7.70
2022-10-11T00:31:02.292Z,7.67
2022-10-11T00:32:01.952Z,7.63
2022-10-11T00:33:01.922Z,7.61
2022-10-11T00:34:01.922Z,7.63
2022-10-11T00:35:01.959Z,7.61
2022-10-11T00:36:02.314Z,7.58
2022-10-11T00:37:01.843Z,7.61
2022-10-11T00:38:01.837Z,7.61
2022-10-11T00:39:01.836Z,7.63
2022-10-11T00:40:01.823Z,7.63
2022-10-11T00:41:04.823Z,7.61
2022-10-11T00:42:04.793Z,7.63
2022-10-11T00:43:01.782Z,7.63
2022-10-11T00:44:01.803Z,7.63
2022-10-11T00:45:01.775Z,7.60
2022-10-11T00:46:02.095Z,7.60
2022-10-11T00:47:01.748Z,7.57
2022-10-11T00:48:01.728Z,7.56
2022-10-11T00:49:01.736Z,7.54
2022-10-11T00:50:01.751Z,7.53
2022-10-11T00:51:01.981Z,7.53
2022-10-11T00:52:01.676Z,7.51
2022-10-11T00:53:01.647Z,7.48
2022-10-11T00:54:01.657Z,7.48
2022-10-11T00:55:01.645Z,7.50
2022-10-11T00:56:02.176Z,7.50
2022-10-11T00:57:01.608Z,7.50
2022-10-11T00:58:01.598Z,7.50
2022-10-11T00:59:01.587Z,7.51
2022-10-11T01:00:01.618Z,7.51
2022-10-11T01:01:04.573Z,7.50
2022-10-11T01:02:04.549Z,7.50
2022-10-11T01:03:01.520Z,7.48
2022-10-11T01:04:01.509Z,7.48
2022-10-11T01:05:27.755Z,7.48
2022-10-11T01:06:02.828Z,7.47
2022-10-11T01:07:01.500Z,7.47
2022-10-11T01:08:01.453Z,7.47
2022-10-11T01:09:01.441Z,7.45
2022-10-11T01:10:01.430Z,7.42
2022-10-11T01:11:01.401Z,7.40
2022-10-11T01:12:01.449Z,7.39
2022-10-11T01:13:01.392Z,7.36
2022-10-11T01:14:01.361Z,7.36
2022-10-11T01:15:01.379Z,7.35
2022-10-11T01:16:01.729Z,7.36
2022-10-11T01:17:01.352Z,7.38
2022-10-11T01:18:01.324Z,7.38
2022-10-11T01:19:01.318Z,7.38
2022-10-11T01:20:01.293Z,7.35
2022-10-11T01:21:04.283Z,7.32
2022-10-11T01:22:04.326Z,7.33
2022-10-11T01:23:01.251Z,7.29
2022-10-11T01:24:06.035Z,7.29
2022-10-11T01:25:02.252Z,7.32
2022-10-11T01:26:01.442Z,7.29
2022-10-11T01:27:01.243Z,7.32
2022-10-11T01:28:01.218Z,7.35
2022-10-11T01:29:01.216Z,7.36
2022-10-11T01:30:01.208Z,7.38
2022-10-11T01:31:01.147Z,7.38
2022-10-11T01:32:01.150Z,7.39
2022-10-11T01:33:01.175Z,7.40
2022-10-11T01:34:01.124Z,7.42
2022-10-11T01:35:01.137Z,7.42
2022-10-11T01:36:01.424Z,7.39
2022-10-11T01:37:01.067Z,7.39
2022-10-11T01:38:01.062Z,7.36
2022-10-11T01:39:01.091Z,7.33
2022-10-11T01:40:01.029Z,7.31
2022-10-11T01:41:04.038Z,7.32
2022-10-11T01:42:04.027Z,7.35
2022-10-11T01:43:01.000Z,7.31
2022-10-11T01:44:00.990Z,7.32
2022-10-11T01:45:01.021Z,7.35
2022-10-11T01:46:01.105Z,7.38
2022-10-11T01:47:00.921Z,7.39
2022-10-11T01:48:00.918Z,7.39
2022-10-11T01:49:00.893Z,7.42
2022-10-11T01:50:00.922Z,7.43
2022-10-11T01:51:00.898Z,7.45
2022-10-11T01:52:00.891Z,7.48
2022-10-11T01:53:00.834Z,7.50
2022-10-11T01:54:00.874Z,7.50
2022-10-11T01:55:16.123Z,7.48
2022-10-11T01:56:02.186Z,7.51
2022-10-11T01:57:00.793Z,7.54
2022-10-11T01:58:00.793Z,7.54
2022-10-11T01:59:00.803Z,7.54
2022-10-11T02:00:00.813Z,7.57
2022-10-11T02:01:03.779Z,7.60
2022-10-11T02:02:03.782Z,7.58
2022-10-11T02:03:00.704Z,7.60
2022-10-11T02:04:00.694Z,7.60
2022-10-11T02:05:00.685Z,7.66
2022-10-11T02:06:00.706Z,7.69
2022-10-11T02:07:00.654Z,7.69
2022-10-11T02:08:00.724Z,7.67
2022-10-11T02:09:04.343Z,7.69
2022-10-11T02:10:01.605Z,7.67
2022-10-11T02:11:00.587Z,7.70
2022-10-11T02:12:00.587Z,7.67
2022-10-11T02:13:00.567Z,7.69
2022-10-11T02:14:00.585Z,7.69
2022-10-11T02:15:00.577Z,7.67
2022-10-11T02:16:00.559Z,7.66
2022-10-11T02:17:00.508Z,7.61
2022-10-11T02:18:00.568Z,7.63
2022-10-11T02:19:00.510Z,7.60
2022-10-11T02:20:00.479Z,7.58
2022-10-11T02:21:03.488Z,7.58
2022-10-11T02:22:03.469Z,7.58
2022-10-11T02:23:00.450Z,7.54
2022-10-11T02:24:00.424Z,7.53
2022-10-11T02:25:00.450Z,7.48
2022-10-11T02:26:00.427Z,7.47
2022-10-11T02:27:00.390Z,7.42
2022-10-11T02:28:00.370Z,7.40
2022-10-11T02:29:00.350Z,7.40
2022-10-11T02:30:00.394Z,7.36
2022-10-11T02:31:00.360Z,7.35
2022-10-11T02:32:00.301Z,7.35
2022-10-11T02:33:00.311Z,7.29
2022-10-11T02:34:00.291Z,7.29
2022-10-11T02:35:00.343Z,7.29
2022-10-11T02:36:00.253Z,7.25
2022-10-11T02:37:00.242Z,7.28
2022-10-11T02:38:00.223Z,7.28
2022-10-11T02:39:00.243Z,7.24
2022-10-11T02:40:00.229Z,7.23
2022-10-11T02:41:03.273Z,7.21
2022-10-11T02:42:03.226Z,7.23
2022-10-11T02:43:00.175Z,7.21
2022-10-11T02:44:00.174Z,7.21
2022-10-11T02:45:00.133Z,7.20
2022-10-11T02:46:00.137Z,7.17
2022-10-11T02:47:00.149Z,7.15
2022-10-11T02:48:00.099Z,7.13
2022-10-11T02:49:00.147Z,7.10
2022-10-11T02:50:00.112Z,7.07
2022-10-11T02:51:00.075Z,7.05
2022-10-11T02:52:00.076Z,7.00
2022-10-11T02:53:00.035Z,7.00
2022-10-11T02:54:00.006Z,6.97
2022-10-11T02:55:00.030Z,6.95
2022-10-11T02:55:59.987Z,6.92
2022-10-11T02:56:59.977Z,6.88
2022-10-11T02:57:59.991Z,6.85
2022-10-11T02:58:59.937Z,6.85
2022-10-11T02:59:59.949Z,6.82
2022-10-11T03:01:02.949Z,6.82
2022-10-11T03:02:02.983Z,6.82
2022-10-11T03:02:59.889Z,6.78
2022-10-11T03:03:59.870Z,6.78
2022-10-11T03:04:59.858Z,6.77
2022-10-11T03:05:59.889Z,6.75
2022-10-11T03:06:59.858Z,6.72
2022-10-11T03:07:59.810Z,6.70
2022-10-11T03:08:59.831Z,6.69
2022-10-11T03:09:59.807Z,6.66
2022-10-11T03:10:59.840Z,6.64
2022-10-11T03:11:59.762Z,6.63
2022-10-11T03:12:59.746Z,6.63
2022-10-11T03:13:59.750Z,6.63
2022-10-11T03:14:59.712Z,6.62
2022-10-11T03:16:03.509Z,6.60
2022-10-11T03:17:17.223Z,6.59
2022-10-11T03:18:00.751Z,6.57
2022-10-11T03:18:59.669Z,6.54
2022-10-11T03:19:59.671Z,6.51
2022-10-11T03:21:02.655Z,6.51
2022-10-11T03:22:02.693Z,6.54
2022-10-11T03:22:59.604Z,6.54
2022-10-11T03:23:59.605Z,6.52
2022-10-11T03:25:03.621Z,6.52
2022-10-11T03:25:59.612Z,6.51
2022-10-11T03:26:59.580Z,6.51
2022-10-11T03:27:59.614Z,6.52
2022-10-11T03:28:59.623Z,6.49
2022-10-11T03:29:59.545Z,6.49
2022-10-11T03:30:59.517Z,6.48
2022-10-11T03:31:59.515Z,6.48
2022-10-11T03:32:59.493Z,6.46
2022-10-11T03:33:59.476Z,6.46
2022-10-11T03:34:59.493Z,6.45
2022-10-11T03:35:59.459Z,6.42
2022-10-11T03:36:59.455Z,6.41
2022-10-11T03:37:59.426Z,6.38
2022-10-11T03:38:59.410Z,6.36
2022-10-11T03:39:59.439Z,6.35
2022-10-11T03:41:02.418Z,6.33
2022-10-11T03:42:02.419Z,6.33
2022-10-11T03:42:59.360Z,6.28
2022-10-11T03:43:59.348Z,6.26
2022-10-11T03:44:59.350Z,6.24
2022-10-11T03:45:59.360Z,6.22
2022-10-11T03:46:59.329Z,6.20
2022-10-11T03:47:59.270Z,6.17
2022-10-11T03:48:59.259Z,6.17
2022-10-11T03:49:59.258Z,6.16
2022-10-11T03:50:59.280Z,6.14
2022-10-11T03:51:59.280Z,6.14
2022-10-11T03:52:59.211Z,6.14
2022-10-11T03:53:59.210Z,6.12
2022-10-11T03:54:59.234Z,6.11
2022-10-11T03:55:59.171Z,6.09
2022-10-11T03:56:59.160Z,6.09
2022-10-11T03:57:59.181Z,6.08
2022-10-11T03:58:59.193Z,6.07
2022-10-11T03:59:59.151Z,6.05
2022-10-11T04:01:02.122Z,6.05
2022-10-11T04:02:02.168Z,6.07
2022-10-11T04:02:59.093Z,6.04
2022-10-11T04:03:59.073Z,6.05
2022-10-11T04:04:59.073Z,6.05
2022-10-11T04:05:59.075Z,6.05
2022-10-11T04:06:59.075Z,6.02
2022-10-11T04:07:59.070Z,5.99
2022-10-11T04:08:59.055Z,5.99
2022-10-11T04:09:59.035Z,5.94
2022-10-11T04:10:58.996Z,5.91
2022-10-11T04:11:59.025Z,5.89
2022-10-11T04:12:58.948Z,5.87
2022-10-11T04:13:58.975Z,5.84
2022-10-11T04:14:58.934Z,5.82
2022-10-11T04:15:58.937Z,5.79
2022-10-11T04:17:00.473Z,5.76
2022-10-11T04:17:58.916Z,5.73
2022-10-11T04:18:58.876Z,5.71
2022-10-11T04:19:58.916Z,5.69
2022-10-11T04:21:01.963Z,5.69
2022-10-11T04:22:01.915Z,5.69
2022-10-11T04:22:58.858Z,5.66
2022-10-11T04:23:58.806Z,5.66
2022-10-11T04:24:58.822Z,5.66
2022-10-11T04:25:58.859Z,5.68
2022-10-11T04:26:58.770Z,5.66
2022-10-11T04:27:58.756Z,5.65
2022-10-11T04:28:58.835Z,5.66
2022-10-11T04:29:58.749Z,5.65
2022-10-11T04:30:58.728Z,5.64
2022-10-11T04:31:58.739Z,5.65
2022-10-11T04:32:58.699Z,5.64
2022-10-11T04:33:58.691Z,5.65
2022-10-11T04:34:58.651Z,5.64
2022-10-11T04:35:58.647Z,5.64
2022-10-11T04:36:58.660Z,5.62
2022-10-11T04:37:58.614Z,5.62
2022-10-11T04:38:58.603Z,5.59
2022-10-11T04:39:58.612Z,5.59
2022-10-11T04:41:01.590Z,5.54
2022-10-11T04:42:01.642Z,5.54
2022-10-11T04:42:58.560Z,5.51
2022-10-11T04:43:58.544Z,5.48
2022-10-11T04:44:58.561Z,5.44
2022-10-11T04:45:58.520Z,5.41
2022-10-11T04:46:58.494Z,5.38
2022-10-11T04:47:58.533Z,5.36
2022-10-11T04:48:58.465Z,5.33
2022-10-11T04:49:58.474Z,5.32
2022-10-11T04:50:58.447Z,5.30
2022-10-11T04:51:58.436Z,5.29
2022-10-11T04:52:58.479Z,5.26
2022-10-11T04:53:58.447Z,5.25
2022-10-11T04:54:58.396Z,5.23
2022-10-11T04:55:58.385Z,5.18
2022-10-11T04:56:58.367Z,5.15
2022-10-11T04:57:58.354Z,5.14
2022-10-11T04:58:58.396Z,5.11
2022-10-11T04:59:58.394Z,5.11
2022-10-11T05:01:01.350Z,5.08
2022-10-11T05:02:01.317Z,5.07
2022-10-11T05:02:58.317Z,5.04
2022-10-11T05:03:58.317Z,5.02
2022-10-11T05:04:58.276Z,5.00
2022-10-11T05:06:00.965Z,4.99
2022-10-11T05:06:59.235Z,4.96
2022-10-11T05:07:58.237Z,4.96
2022-10-11T05:08:58.220Z,4.94
2022-10-11T05:09:58.228Z,4.93
2022-10-11T05:10:58.179Z,4.93
2022-10-11T05:11:58.162Z,4.93
2022-10-11T05:12:58.169Z,4.93
2022-10-11T05:13:58.120Z,4.94
2022-10-11T05:14:58.159Z,4.94
2022-10-11T05:15:58.122Z,4.93
2022-10-11T05:16:58.094Z,4.93
2022-10-11T05:17:58.080Z,4.92
2022-10-11T05:18:58.064Z,4.90
2022-10-11T05:19:58.044Z,4.89
2022-10-11T05:21:01.051Z,4.87
2022-10-11T05:22:01.020Z,4.80
2022-10-11T05:22:58.024Z,4.75
2022-10-11T05:23:57.993Z,4.74
2022-10-11T05:24:58.020Z,4.77
2022-10-11T05:25:57.985Z,4.80
2022-10-11T05:27:03.025Z,4.80
2022-10-11T05:27:59.031Z,4.82
2022-10-11T05:28:57.975Z,4.84
2022-10-11T05:29:57.942Z,4.82
2022-10-11T05:30:57.892Z,4.78
2022-10-11T05:31:57.886Z,4.75
2022-10-11T05:32:57.884Z,4.73
2022-10-11T05:33:57.874Z,4.71
2022-10-11T05:34:57.845Z,4.70
2022-10-11T05:35:57.852Z,4.67
2022-10-11T05:36:57.815Z,4.63
2022-10-11T05:37:57.905Z,4.60
2022-10-11T05:38:57.806Z,4.58
2022-10-11T05:39:57.784Z,4.55
2022-10-11T05:41:00.765Z,4.50
2022-10-11T05:42:00.787Z,4.50
2022-10-11T05:42:57.756Z,4.48
2022-10-11T05:43:57.756Z,4.45
2022-10-11T05:44:57.726Z,4.42
2022-10-11T05:45:57.698Z,4.41
2022-10-11T05:46:57.707Z,4.40
2022-10-11T05:47:57.687Z,4.40
2022-10-11T05:48:57.648Z,4.37
2022-10-11T05:49:57.636Z,4.35
2022-10-11T05:50:57.616Z,4.34
2022-10-11T05:51:57.617Z,4.32
2022-10-11T05:52:57.648Z,4.32
2022-10-11T05:53:57.599Z,4.30
2022-10-11T05:54:57.578Z,4.26
2022-10-11T05:55:57.568Z,4.24
2022-10-11T05:56:57.537Z,4.22
2022-10-11T05:57:57.568Z,4.19
2022-10-11T05:59:02.055Z,4.20
2022-10-11T05:59:57.489Z,4.19
2022-10-11T06:01:00.603Z,4.20
2022-10-11T06:02:00.499Z,4.22
2022-10-11T06:02:57.500Z,4.20
2022-10-11T06:03:57.483Z,4.24
2022-10-11T06:04:57.500Z,4.26
2022-10-11T06:05:57.532Z,4.28
2022-10-11T06:06:57.421Z,4.30
2022-10-11T06:07:57.400Z,4.31
2022-10-11T06:08:57.415Z,4.31
2022-10-11T06:09:57.382Z,4.30
2022-10-11T06:10:57.351Z,4.28
2022-10-11T06:11:57.344Z,4.31
2022-10-11T06:12:57.328Z,4.31
2022-10-11T06:13:57.313Z,4.30
2022-10-11T06:14:57.321Z,4.31
2022-10-11T06:15:57.322Z,4.26
2022-10-11T06:16:57.283Z,4.24
2022-10-11T06:17:57.252Z,4.24
2022-10-11T06:18:57.252Z,4.28
2022-10-11T06:19:57.253Z,4.32
2022-10-11T06:21:00.283Z,4.37
2022-10-11T06:22:00.215Z,4.41
2022-10-11T06:22:57.209Z,4.44
2022-10-11T06:24:01.349Z,4.50
2022-10-11T06:24:57.196Z,4.55
2022-10-11T06:25:57.148Z,4.60
2022-10-11T06:26:57.165Z,4.66
2022-10-11T06:27:57.135Z,4.68
2022-10-11T06:28:57.184Z,4.73
2022-10-11T06:29:57.098Z,4.78
2022-10-11T06:30:57.099Z,4.87
2022-10-11T06:31:57.056Z,4.92
2022-10-11T06:33:01.096Z,4.97
2022-10-11T06:33:58.057Z,5.05
2022-10-11T06:34:57.066Z,5.11
2022-10-11T06:35:56.996Z,5.17
2022-10-11T06:36:56.997Z,5.23
2022-10-11T06:37:57.047Z,5.29
2022-10-11T06:38:56.957Z,5.32
2022-10-11T06:39:56.958Z,5.36
2022-10-11T06:40:59.953Z,5.43
2022-10-11T06:41:59.948Z,5.47
2022-10-11T06:42:56.939Z,5.47
2022-10-11T06:43:56.881Z,5.50
2022-10-11T06:44:56.885Z,5.51
2022-10-11T06:45:56.910Z,5.53
2022-10-11T06:46:56.860Z,5.54
2022-10-11T06:47:56.828Z,5.56
2022-10-11T06:48:56.879Z,5.56
2022-10-11T06:49:56.810Z,5.57
2022-10-11T06:51:00.148Z,5.61
2022-10-11T06:51:56.854Z,5.61
2022-10-11T06:52:56.778Z,5.64
2022-10-11T06:53:56.783Z,5.65
2022-10-11T06:54:56.750Z,5.69
2022-10-11T06:55:56.720Z,5.69
2022-10-11T06:56:56.729Z,5.72
2022-10-11T06:57:56.772Z,5.75
2022-10-11T06:58:56.689Z,5.79
2022-10-11T06:59:56.682Z,5.79
2022-10-11T07:00:59.671Z,5.82
2022-10-11T07:01:59.653Z,5.87
2022-10-11T07:02:56.642Z,5.86
2022-10-11T07:03:56.635Z,5.89
2022-10-11T07:04:56.633Z,5.91
2022-10-11T07:06:01.496Z,5.97
2022-10-11T07:06:57.687Z,5.98
2022-10-11T07:07:56.583Z,6.01
2022-10-11T07:08:56.614Z,6.04
2022-10-11T07:09:56.532Z,6.05
2022-10-11T07:10:56.541Z,6.09
2022-10-11T07:11:56.515Z,6.12
2022-10-11T07:12:56.508Z,6.14
2022-10-11T07:13:56.495Z,6.19
2022-10-11T07:14:56.527Z,6.22
2022-10-11T07:15:56.445Z,6.27
2022-10-11T07:16:56.447Z,6.30
2022-10-11T07:17:56.457Z,6.33
2022-10-11T07:19:00.236Z,6.36
2022-10-11T07:19:56.419Z,6.38
2022-10-11T07:20:59.437Z,6.44
2022-10-11T07:21:59.438Z,6.46
2022-10-11T07:22:56.396Z,6.49
2022-10-11T07:23:56.357Z,6.54
2022-10-11T07:24:56.348Z,6.59
2022-10-11T07:25:56.337Z,6.63
2022-10-11T07:26:56.321Z,6.69
2022-10-11T07:27:56.357Z,6.70
2022-10-11T07:28:56.390Z,6.75
2022-10-11T07:29:56.281Z,6.81
2022-10-11T07:30:56.267Z,6.81
2022-10-11T07:31:56.257Z,6.84
2022-10-11T07:32:56.246Z,6.87
2022-10-11T07:33:56.249Z,6.88
2022-10-11T07:34:56.222Z,6.92
2022-10-11T07:35:56.180Z,6.95
2022-10-11T07:36:56.191Z,6.97
2022-10-11T07:37:56.169Z,6.99
2022-10-11T07:38:56.201Z,7.02
2022-10-11T07:39:56.154Z,7.05
2022-10-11T07:40:59.142Z,7.07
2022-10-11T07:41:59.132Z,7.13
2022-10-11T07:42:56.125Z,7.13
2022-10-11T07:43:56.088Z,7.14
2022-10-11T07:44:56.123Z,7.17
2022-10-11T07:45:56.081Z,7.21
2022-10-11T07:46:56.042Z,7.24
2022-10-11T07:47:56.044Z,7.28
2022-10-11T07:48:56.043Z,7.32
2022-10-11T07:49:56.003Z,7.36
2022-10-11T07:50:56.016Z,7.39
2022-10-11T07:51:55.983Z,7.43
2022-10-11T07:52:55.975Z,7.47
2022-10-11T07:53:55.999Z,7.53
2022-10-11T07:54:55.963Z,7.53
2022-10-11T07:55:55.926Z,7.57
2022-10-11T07:56:55.914Z,7.63
2022-10-11T07:57:55.905Z,7.66
2022-10-11T07:58:55.964Z,7.72
2022-10-11T07:59:55.895Z,7.76
2022-10-11T08:00:58.898Z,7.79
2022-10-11T08:01:58.959Z,7.85
2022-10-11T08:02:55.836Z,7.88
2022-10-11T08:03:55.826Z,7.90
2022-10-11T08:04:55.875Z,7.93
2022-10-11T08:05:55.795Z,7.97
2022-10-11T08:06:55.787Z,8.03
2022-10-11T08:07:55.768Z,8.08
2022-10-11T08:08:55.770Z,8.13
2022-10-11T08:09:55.740Z,8.18
2022-10-11T08:10:55.771Z,8.26
2022-10-11T08:11:55.707Z,8.31
2022-10-11T08:12:57.013Z,8.36
2022-10-11T08:13:55.687Z,8.42
2022-10-11T08:14:55.719Z,8.49
2022-10-11T08:15:55.669Z,8.56
2022-10-11T08:16:55.659Z,8.64
2022-10-11T08:17:55.629Z,8.73
2022-10-11T08:18:55.625Z,8.79
2022-10-11T08:19:55.604Z,8.87
2022-10-11T08:20:58.618Z,8.94
2022-10-11T08:21:58.573Z,9.02
2022-10-11T08:22:55.572Z,9.08
2022-10-11T08:23:55.570Z,9.14
2022-10-11T08:24:55.541Z,9.18
2022-10-11T08:25:55.523Z,9.22
2022-10-11T08:26:55.621Z,9.25
2022-10-11T08:27:55.502Z,9.28
2022-10-11T08:28:55.570Z,9.34
2022-10-11T08:29:55.482Z,9.37
2022-10-11T08:30:55.453Z,9.39
2022-10-11T08:31:55.450Z,9.43
2022-10-11T08:32:55.512Z,9.46
2022-10-11T08:33:55.423Z,9.48
2022-10-11T08:34:55.424Z,9.51
2022-10-11T08:35:55.403Z,9.55
2022-10-11T08:36:55.363Z,9.55
2022-10-11T08:37:55.375Z,9.56
2022-10-11T08:38:55.383Z,9.59
2022-10-11T08:39:55.351Z,9.65
2022-10-11T08:40:58.314Z,9.72
2022-10-11T08:41:58.325Z,9.77
2022-10-11T08:42:55.297Z,9.77
2022-10-11T08:43:55.307Z,9.79
2022-10-11T08:45:12.063Z,9.83
2022-10-11T08:45:56.246Z,9.86
2022-10-11T08:47:00.196Z,9.91
2022-10-11T08:47:56.267Z,9.94
2022-10-11T08:48:55.207Z,9.97
2022-10-11T08:49:55.207Z,10.02
2022-10-11T08:50:55.198Z,10.09
2022-10-11T08:51:55.209Z,10.10
2022-10-11T08:52:55.168Z,10.16
2022-10-11T08:53:55.171Z,10.17
2022-10-11T08:54:55.149Z,10.23
2022-10-11T08:55:55.184Z,10.28
2022-10-11T08:56:55.137Z,10.30
2022-10-11T08:57:55.081Z,10.33
2022-10-11T08:58:55.111Z,10.38
2022-10-11T08:59:55.067Z,10.41
2022-10-11T09:00:58.115Z,10.44
2022-10-11T09:01:58.149Z,10.49
2022-10-11T09:03:10.365Z,10.54
2022-10-11T09:03:56.032Z,10.63
2022-10-11T09:04:55.032Z,10.71
2022-10-11T09:05:55.029Z,10.75
2022-10-11T09:06:54.982Z,10.76
2022-10-11T09:07:54.972Z,10.82
2022-10-11T09:08:55.012Z,10.86
2022-10-11T09:09:54.935Z,10.90
2022-10-11T09:10:54.962Z,10.96
2022-10-11T09:11:54.971Z,10.96
2022-10-11T09:12:54.903Z,11.00
2022-10-11T09:13:54.903Z,11.04
2022-10-11T09:14:54.891Z,11.10
2022-10-11T09:15:54.891Z,11.14
2022-10-11T09:16:54.848Z,11.18
2022-10-11T09:17:54.884Z,11.23
2022-10-11T09:18:54.845Z,11.30
2022-10-11T09:19:54.815Z,11.40
2022-10-11T09:20:57.804Z,11.44
2022-10-11T09:21:57.818Z,11.54
2022-10-11T09:22:54.803Z,11.60
2022-10-11T09:23:54.841Z,11.69
2022-10-11T09:24:54.797Z,11.80
2022-10-11T09:25:54.769Z,11.87
2022-10-11T09:26:54.717Z,11.97
2022-10-11T09:28:02.885Z,12.07
2022-10-11T09:29:00.793Z,12.17
2022-10-11T09:29:55.678Z,12.29
2022-10-11T09:30:54.669Z,12.45
2022-10-11T09:31:54.669Z,12.58
2022-10-11T09:32:54.629Z,12.68
2022-10-11T09:33:54.630Z,12.73
2022-10-11T09:34:54.637Z,12.76
2022-10-11T09:35:54.747Z,12.79
2022-10-11T09:36:54.612Z,12.79
2022-10-11T09:37:54.573Z,12.79
2022-10-11T09:38:54.651Z,12.80
2022-10-11T09:39:54.579Z,12.78
2022-10-11T09:40:57.512Z,12.79
2022-10-11T09:41:57.574Z,12.80
2022-10-11T09:42:54.489Z,12.75
2022-10-11T09:43:54.522Z,12.75
2022-10-11T09:44:54.532Z,12.78
2022-10-11T09:45:54.495Z,12.80
2022-10-11T09:46:54.452Z,12.83
2022-10-11T09:47:54.425Z,12.82
2022-10-11T09:48:54.443Z,12.80
2022-10-11T09:49:54.412Z,12.85
2022-10-11T09:50:54.475Z,12.91
2022-10-11T09:51:54.404Z,12.95
2022-10-11T09:52:54.385Z,12.98
2022-10-11T09:53:54.375Z,13.01
2022-10-11T09:54:54.345Z,13.05
2022-10-11T09:55:54.337Z,13.09
2022-10-11T09:56:54.397Z,13.12
2022-10-11T09:57:54.336Z,13.15
2022-10-11T09:58:54.536Z,13.20
2022-10-11T09:59:54.348Z,13.23
2022-10-11T10:00:57.326Z,13.25
2022-10-11T10:01:57.351Z,13.28
2022-10-11T10:02:54.641Z,13.25
2022-10-11T10:03:54.254Z,13.23
2022-10-11T10:04:56.014Z,13.23
2022-10-11T10:05:54.265Z,13.23
2022-10-11T10:06:54.179Z,13.30
2022-10-11T10:07:54.182Z,13.31
2022-10-11T10:08:54.200Z,13.31
2022-10-11T10:09:54.300Z,13.37
2022-10-11T10:10:59.682Z,13.37
2022-10-11T10:11:54.155Z,13.41
2022-10-11T10:12:54.222Z,13.49
2022-10-11T10:13:54.320Z,13.53
2022-10-11T10:14:54.143Z,13.52
2022-10-11T10:15:54.087Z,13.52
2022-10-11T10:16:54.061Z,13.56
2022-10-11T10:17:54.083Z,13.62
2022-10-11T10:18:54.419Z,13.68
2022-10-11T10:19:55.115Z,13.67
2022-10-11T10:20:57.167Z,13.68
2022-10-11T10:21:59.120Z,13.72
2022-10-11T10:22:54.024Z,13.70
2022-10-11T10:23:54.096Z,13.70
2022-10-11T10:24:53.935Z,13.70
2022-10-11T10:25:53.955Z,13.71
2022-10-11T10:26:53.936Z,13.71
2022-10-11T10:27:53.964Z,13.71
2022-10-11T10:28:53.945Z,13.72
2022-10-11T10:29:53.917Z,13.77
2022-10-11T10:30:54.006Z,13.81
2022-10-11T10:32:14.244Z,13.79
2022-10-11T10:32:54.968Z,13.85
2022-10-11T10:33:53.929Z,13.96
2022-10-11T10:34:53.938Z,13.96
2022-10-11T10:35:54.296Z,14.03
2022-10-11T10:36:54.473Z,14.14
2022-10-11T10:37:53.779Z,14.26
2022-10-11T10:38:54.503Z,14.30
2022-10-11T10:39:53.841Z,14.29
2022-10-11T10:40:56.834Z,14.33
2022-10-11T10:41:56.755Z,14.44
2022-10-11T10:42:53.673Z,14.47
2022-10-11T10:43:54.142Z,14.59
2022-10-11T10:44:53.683Z,14.70
2022-10-11T10:45:53.662Z,14.86
2022-10-11T10:46:53.653Z,14.96
2022-10-11T10:47:53.730Z,14.96
2022-10-11T10:49:55.227Z,14.96
2022-10-11T10:50:53.644Z,14.97
2022-10-11T10:51:53.602Z,14.94
2022-10-11T10:52:53.586Z,14.94
2022-10-11T10:53:53.586Z,14.94
2022-10-11T10:54:53.633Z,14.92
2022-10-11T10:55:53.605Z,14.97
2022-10-11T10:56:53.496Z,14.96
2022-10-11T10:57:53.567Z,15.02
2022-10-11T10:58:53.550Z,15.09
2022-10-11T10:59:53.550Z,15.10
2022-10-11T11:00:56.506Z,15.10
2022-10-11T11:01:56.673Z,15.17
2022-10-11T11:02:53.539Z,15.18
2022-10-11T11:03:53.498Z,15.21
2022-10-11T11:04:53.420Z,15.17
2022-10-11T11:05:53.392Z,15.04
2022-10-11T11:06:53.370Z,15.04
2022-10-11T11:07:53.419Z,15.03
2022-10-11T11:08:53.354Z,15.09
2022-10-11T11:09:53.311Z,15.11
2022-10-11T11:10:53.343Z,15.04
2022-10-11T11:11:53.311Z,15.06
2022-10-11T11:12:53.702Z,15.11
2022-10-11T11:13:53.266Z,15.07
2022-10-11T11:14:53.243Z,15.09
2022-10-11T11:15:53.263Z,15.07
2022-10-11T11:16:53.287Z,15.14
2022-10-11T11:17:53.213Z,15.21
2022-10-11T11:18:53.224Z,15.24
2022-10-11T11:19:53.181Z,15.06
2022-10-11T11:20:56.214Z,14.91
2022-10-11T11:21:56.155Z,14.94
2022-10-11T11:22:53.156Z,14.92
2022-10-11T11:23:53.164Z,14.97
2022-10-11T11:24:53.116Z,14.96
2022-10-11T11:25:53.106Z,14.99
2022-10-11T11:26:53.106Z,15.02
2022-10-11T11:27:53.078Z,15.06
2022-10-11T11:28:53.111Z,15.11
2022-10-11T11:29:55.531Z,15.11
2022-10-11T11:30:53.077Z,15.11
2022-10-11T11:31:53.009Z,15.17
2022-10-11T11:32:53.006Z,15.17
2022-10-11T11:33:53.001Z,15.22
2022-10-11T11:34:52.970Z,15.22
2022-10-11T11:35:52.964Z,15.19
2022-10-11T11:36:52.962Z,15.18
2022-10-11T11:37:59.264Z,15.19
2022-10-11T11:38:53.911Z,15.06
2022-10-11T11:39:52.902Z,15.10
2022-10-11T11:40:55.891Z,15.14
2022-10-11T11:41:55.924Z,15.22
2022-10-11T11:42:52.861Z,15.24
2022-10-11T11:43:52.873Z,15.25
2022-10-11T11:44:52.863Z,15.18
2022-10-11T11:45:52.830Z,15.17
2022-10-11T11:46:52.863Z,15.18
2022-10-11T11:47:52.805Z,15.22
2022-10-11T11:48:52.776Z,15.29
2022-10-11T11:49:52.775Z,15.37
2022-10-11T11:50:52.745Z,15.33
2022-10-11T11:51:52.725Z,15.21
2022-10-11T11:52:52.750Z,15.11
2022-10-11T11:53:52.715Z,15.17
2022-10-11T11:54:52.738Z,15.18
2022-10-11T11:55:52.690Z,15.24
2022-10-11T11:56:52.657Z,15.25
2022-10-11T11:57:52.658Z,15.31
2022-10-11T11:58:52.626Z,15.37
2022-10-11T11:59:52.638Z,15.42
2022-10-11T12:00:55.631Z,15.52
2022-10-11T12:01:55.703Z,15.61
2022-10-11T12:02:52.619Z,15.65
2022-10-11T12:03:52.578Z,15.64
2022-10-11T12:04:52.590Z,15.70
2022-10-11T12:05:52.548Z,15.72
2022-10-11T12:07:14.567Z,15.79
2022-10-11T12:07:53.511Z,15.83
2022-10-11T12:08:52.522Z,15.86
2022-10-11T12:09:52.486Z,15.82
2022-10-11T12:10:52.503Z,15.80
2022-10-11T12:11:52.529Z,15.79
2022-10-11T12:12:52.453Z,15.83
2022-10-11T12:13:52.433Z,15.88
2022-10-11T12:14:52.422Z,15.90
2022-10-11T12:15:52.404Z,15.79
2022-10-11T12:16:52.435Z,15.77
2022-10-11T12:17:52.373Z,15.70
2022-10-11T12:18:52.375Z,15.52
2022-10-11T12:19:52.372Z,15.43
2022-10-11T12:20:55.349Z,15.43
2022-10-11T12:21:55.384Z,15.42
2022-10-11T12:22:52.306Z,15.42
2022-10-11T12:23:52.290Z,15.37
2022-10-11T12:24:52.297Z,15.29
2022-10-11T12:25:52.288Z,15.31
2022-10-11T12:26:52.259Z,15.28
2022-10-11T12:27:52.287Z,15.18
2022-10-11T12:28:52.282Z,15.11
2022-10-11T12:29:52.225Z,15.07
2022-10-11T12:30:52.234Z,15.02
2022-10-11T12:31:52.212Z,14.96
2022-10-11T12:32:52.175Z,14.82
2022-10-11T12:33:52.160Z,14.77
2022-10-11T12:34:52.211Z,14.73
2022-10-11T12:35:52.161Z,14.77
2022-10-11T12:36:52.141Z,14.73
2022-10-11T12:37:52.132Z,14.73
2022-10-11T12:38:52.103Z,14.70
2022-10-11T12:39:52.428Z,14.66
2022-10-11T12:40:55.082Z,14.62
2022-10-11T12:41:55.066Z,14.69
2022-10-11T12:42:52.036Z,14.69
2022-10-11T12:43:52.034Z,14.70
2022-10-11T12:44:52.014Z,14.70
2022-10-11T12:45:52.035Z,14.72
2022-10-11T12:46:51.995Z,14.69
2022-10-11T12:47:51.999Z,14.72
2022-10-11T12:48:51.965Z,14.73
2022-10-11T12:49:51.958Z,14.72
2022-10-11T12:50:51.936Z,14.79
2022-10-11T12:51:51.907Z,14.78
2022-10-11T12:52:51.888Z,14.72
2022-10-11T12:54:08.193Z,14.66
2022-10-11T12:54:52.926Z,14.63
2022-10-11T12:55:51.856Z,14.63
2022-10-11T12:56:51.859Z,14.63
2022-10-11T12:57:51.830Z,14.65
2022-10-11T12:58:51.819Z,14.68
2022-10-11T12:59:51.840Z,14.72
2022-10-11T13:00:54.892Z,14.73
2022-10-11T13:01:54.803Z,14.77
2022-10-11T13:02:51.789Z,14.72
2022-10-11T13:03:51.891Z,14.73
2022-10-11T13:04:51.741Z,14.86
2022-10-11T13:05:53.857Z,14.97
2022-10-11T13:06:51.802Z,15.10
2022-10-11T13:07:51.711Z,15.14
2022-10-11T13:08:51.693Z,15.14
2022-10-11T13:09:51.683Z,15.17